Time;durP1;ratioP1;P1;durP2;ratioP2;P2;SDS_P1;SDS_P2;PMS_P1;PMS_P2;Temp;Humidity;BMP_temperature;BMP_pressure;BME280_temperature;BME280_humidity;BME280_pressure;Samples;Min_cycle;Max_cycle;Signal;HPM_P1;HPM_P2
2021/05/03 02:10:06;;;;;;;8.88;7.60;;;;;;;4.59;70.42;97080.75;5336282;23;20051;-82
2021/05/03 02:12:37;;;;;;;8.73;7.25;;;;;;;4.60;70.38;97091.91;4994916;28;20086;-82
2021/05/03 02:15:07;;;;;;;8.25;7.35;;;;;;;4.65;70.85;97095.69;4988516;28;20054;-82
2021/05/03 02:17:35;;;;;;;9.68;8.68;;;;;;;4.69;70.71;97098.84;4988248;28;20090;-82
2021/05/03 02:20:04;;;;;;;8.27;7.40;;;;;;;4.71;70.80;97096.94;4967301;28;20082;-81
2021/05/03 02:22:31;;;;;;;8.20;7.30;;;;;;;4.73;70.66;97095.06;4966408;29;20052;-81
2021/05/03 02:24:59;;;;;;;8.02;7.22;;;;;;;4.77;71.01;97091.25;4967812;29;20074;-81
2021/05/03 02:27:29;;;;;;;8.93;7.22;;;;;;;4.81;71.30;97097.78;4970056;29;20051;-82
2021/05/03 02:29:56;;;;;;;8.07;7.28;;;;;;;4.86;71.11;97089.63;4966929;28;20054;-81
2021/05/03 02:32:25;;;;;;;9.82;7.63;;;;;;;4.92;71.01;97089.09;4966666;29;20071;-81
2021/05/03 02:34:53;;;;;;;9.27;7.82;;;;;;;4.97;70.64;97086.13;4967544;29;20125;-81
2021/05/03 02:37:21;;;;;;;10.30;7.95;;;;;;;5.02;70.71;97091.69;4965303;29;20102;-81
2021/05/03 02:39:49;;;;;;;10.50;8.07;;;;;;;5.05;71.15;97084.50;4964671;28;20051;-81
2021/05/03 02:42:16;;;;;;;11.30;8.82;;;;;;;5.08;70.74;97085.97;4966591;29;20051;-82
2021/05/03 02:44:46;;;;;;;11.50;9.00;;;;;;;5.09;70.72;97082.44;4965371;29;20450;-82
2021/05/03 02:47:14;;;;;;;12.63;9.40;;;;;;;5.10;70.66;97087.47;4964569;29;20051;-81
2021/05/03 02:49:43;;;;;;;13.18;8.50;;;;;;;5.09;70.24;97090.19;4964777;28;20094;-81
2021/05/03 02:52:13;;;;;;;13.77;10.15;;;;;;;5.05;70.24;97099.16;4965716;29;20078;-81
2021/05/03 02:54:43;;;;;;;11.63;9.10;;;;;;;5.01;69.99;97098.63;4964434;29;20055;-82
2021/05/03 02:57:11;;;;;;;11.65;8.48;;;;;;;4.95;69.86;97094.81;4961364;29;20079;-81
2021/05/03 02:59:40;;;;;;;10.15;8.70;;;;;;;4.91;70.30;97090.84;4964224;28;20059;-82
2021/05/03 03:02:09;;;;;;;14.20;10.43;;;;;;;4.87;70.01;97089.47;4964989;29;20047;-81
2021/05/03 03:04:37;;;;;;;11.77;8.80;;;;;;;4.85;70.33;97099.13;4964974;29;20075;-81
2021/05/03 03:07:04;;;;;;;12.60;10.45;;;;;;;4.81;70.95;97097.78;4964853;29;20055;-82
2021/05/03 03:09:32;;;;;;;12.48;9.85;;;;;;;4.80;70.93;97100.50;4964568;28;20051;-81
2021/05/03 03:12:00;;;;;;;13.85;10.60;;;;;;;4.75;71.10;97100.91;4964200;29;20075;-82
2021/05/03 03:14:28;;;;;;;10.73;9.00;;;;;;;4.73;71.19;97103.63;4961793;29;20576;-81
2021/05/03 03:16:56;;;;;;;11.15;9.32;;;;;;;4.70;70.67;97100.47;4963613;29;20051;-81
2021/05/03 03:19:25;;;;;;;8.63;7.72;;;;;;;4.66;71.28;97104.28;4965383;28;20505;-81
2021/05/03 03:21:53;;;;;;;9.43;8.10;;;;;;;4.62;70.98;97101.13;4964762;29;20062;-82
2021/05/03 03:24:20;;;;;;;10.20;8.60;;;;;;;4.59;71.24;97098.00;4972940;29;20074;-82
2021/05/03 03:26:48;;;;;;;9.13;8.23;;;;;;;4.55;71.48;97102.63;4965196;29;20506;-81
2021/05/03 03:29:16;;;;;;;9.25;7.80;;;;;;;4.51;71.24;97109.81;4965964;28;20063;-81
2021/05/03 03:31:44;;;;;;;10.13;7.65;;;;;;;4.49;71.03;97114.28;4964756;29;20097;-81
2021/05/03 03:34:12;;;;;;;9.27;8.23;;;;;;;4.47;71.06;97110.22;4964844;29;20118;-81
2021/05/03 03:36:40;;;;;;;10.25;8.18;;;;;;;4.44;70.82;97116.47;4968451;29;20054;-82
2021/05/03 03:39:09;;;;;;;9.23;8.02;;;;;;;4.41;70.92;97106.38;4967456;28;20075;-81
2021/05/03 03:41:37;;;;;;;11.52;8.18;;;;;;;4.41;71.18;97106.38;4968565;29;20059;-82
2021/05/03 03:44:06;;;;;;;9.90;8.02;;;;;;;4.41;71.21;97108.94;4972252;29;20054;-81
2021/05/03 03:46:33;;;;;;;11.05;7.13;;;;;;;4.42;71.39;97112.38;4967261;29;20059;-82
2021/05/03 03:49:01;;;;;;;10.02;8.10;;;;;;;4.45;71.66;97118.06;4967257;28;20053;-82
2021/05/03 03:51:29;;;;;;;11.95;8.75;;;;;;;4.44;71.54;97106.13;4964474;29;20087;-81
2021/05/03 03:53:58;;;;;;;9.02;7.43;;;;;;;4.44;71.06;97115.63;4965107;29;20044;-82
2021/05/03 03:56:27;;;;;;;10.57;7.50;;;;;;;4.43;70.95;97114.00;4964555;29;20062;-81
2021/05/03 03:58:55;;;;;;;11.45;7.78;;;;;;;4.43;70.85;97119.97;4965737;28;20054;-82
2021/05/03 04:01:23;;;;;;;8.48;7.43;;;;;;;4.41;70.58;97123.63;4965202;29;20075;-81
2021/05/03 04:03:54;;;;;;;13.68;9.23;;;;;;;4.38;70.67;97127.31;4965031;29;20130;-81
2021/05/03 04:06:32;;;;;;;11.45;7.97;;;;;;;4.35;70.61;97135.28;4968294;29;20067;-81
2021/05/03 04:09:07;;;;;;;10.30;7.75;;;;;;;4.32;70.90;97140.72;4961765;28;20070;-81
2021/05/03 04:11:52;;;;;;;10.85;7.80;;;;;;;4.30;70.74;97134.88;4971040;28;20039;-81
2021/05/03 04:22:58;;;;;;;10.32;8.23;;;;;;;4.25;71.25;97137.84;4963694;29;20569;-81
2021/05/03 04:25:32;;;;;;;12.93;8.45;;;;;;;4.26;70.95;97149.81;4963061;29;20055;-81
2021/05/03 04:28:00;;;;;;;11.55;9.18;;;;;;;4.27;70.89;97153.22;4959682;28;20081;-81
2021/05/03 04:30:28;;;;;;;11.93;8.25;;;;;;;4.27;70.68;97150.63;4963192;29;20082;-81
2021/05/03 04:32:56;;;;;;;11.15;9.07;;;;;;;4.29;70.84;97153.91;4964518;29;20085;-81
2021/05/03 04:35:24;;;;;;;14.57;10.80;;;;;;;4.32;70.91;97153.66;4965973;29;20067;-81
2021/05/03 04:37:52;;;;;;;16.73;13.02;;;;;;;4.34;70.55;97156.91;4965793;28;20098;-81
2021/05/03 04:40:20;;;;;;;15.13;12.50;;;;;;;4.32;70.76;97154.44;4964636;29;20051;-81
2021/05/03 04:42:49;;;;;;;12.43;8.80;;;;;;;4.33;70.46;97160.47;4963041;29;20047;-81
2021/05/03 04:45:16;;;;;;;14.90;7.65;;;;;;;4.31;70.70;97158.00;4962815;29;20517;-81
2021/05/03 04:47:44;;;;;;;9.10;7.15;;;;;;;4.27;70.45;97164.38;4964394;29;20078;-81
2021/05/03 04:50:12;;;;;;;13.27;7.45;;;;;;;4.23;70.66;97160.41;4960524;29;20055;-81
2021/05/03 04:52:40;;;;;;;11.15;7.72;;;;;;;4.18;70.60;97166.91;4960467;29;20086;-81
2021/05/03 04:55:08;;;;;;;10.80;8.10;;;;;;;4.12;70.74;97171.63;4961241;29;20051;-81
2021/05/03 04:57:36;;;;;;;10.10;8.10;;;;;;;4.11;71.59;97172.56;4962330;29;20047;-81
2021/05/03 07:04:39;;;;;;;10.65;9.55;;;;;;;7.62;67.24;97224.16;5546308;23;20059;-87
2021/05/03 07:07:10;;;;;;;15.23;9.38;;;;;;;7.75;68.07;97229.00;4950150;29;20123;-80
2021/05/03 07:42:13;;;;;;;10.02;7.97;;;;;;;9.20;60.83;97234.47;5101672;23;20046;-84
2021/05/03 07:47:58;;;;;;;8.55;6.20;;;;;;;9.44;58.69;97233.75;5038540;23;20063;-83
2021/05/03 07:50:26;;;;;;;8.75;7.30;;;;;;;9.55;58.75;97234.44;5000366;28;20046;-82
2021/05/03 07:52:57;;;;;;;7.88;7.07;;;;;;;9.65;59.11;97235.13;5000938;28;20026;-84
2021/05/03 10:24:06;;;;;;;5.25;4.70;;;;;;;12.63;43.33;97199.63;4691275;23;20039;-82
2021/05/03 10:26:39;;;;;;;5.20;3.95;;;;;;;12.87;42.84;97195.09;4981591;28;20058;-82
2021/05/03 10:29:40;;;;;;;5.03;4.32;;;;;;;13.15;42.19;97184.78;4948357;28;20040;-82
2021/05/03 10:32:10;;;;;;;5.53;4.35;;;;;;;13.32;40.81;97191.47;4944161;28;20036;-82
2021/05/03 10:56:15;;;;;;;6.75;3.78;;;;;;;13.96;39.65;97177.56;4943539;28;20116;-79
2021/05/03 11:29:50;;;;;;;4.13;3.70;;;;;;;14.14;37.89;97147.44;5944129;23;20022;-84
2021/05/03 11:37:53;;;;;;;4.43;3.65;;;;;;;14.35;34.59;97123.78;5583827;23;20034;-80
2021/05/03 11:49:19;;;;;;;4.30;3.90;;;;;;;14.45;36.13;97101.63;4961809;28;20036;-82
2021/05/03 11:51:55;;;;;;;5.88;3.88;;;;;;;14.59;36.11;97108.59;4927892;28;20052;-82
2021/05/03 11:54:33;;;;;;;6.22;3.40;;;;;;;14.63;34.11;97092.25;4943165;28;20043;-82
2021/05/03 12:08:54;;;;;;;3.58;2.20;;;;;;;14.76;32.77;97088.88;5150813;23;20040;-81
2021/05/03 12:11:23;;;;;;;5.05;3.40;;;;;;;14.87;33.34;97090.13;4980947;28;20035;-79
2021/05/03 12:14:19;;;;;;;3.97;3.58;;;;;;;14.96;32.71;97082.91;4981061;28;20039;-80
2021/05/03 12:16:56;;;;;;;4.07;3.45;;;;;;;15.04;34.32;97101.09;4996480;28;20102;-80
2021/05/03 12:19:29;;;;;;;7.75;3.80;;;;;;;15.01;33.08;97099.66;4982923;28;20061;-80
2021/05/03 12:22:17;;;;;;;6.53;4.38;;;;;;;14.88;35.85;97102.25;4999491;28;20114;-80
2021/05/03 12:25:08;;;;;;;4.68;4.20;;;;;;;14.68;36.07;97090.88;4984364;28;20039;-79
2021/05/03 12:27:55;;;;;;;4.67;3.73;;;;;;;14.49;37.51;97100.22;4991336;28;20036;-79
2021/05/03 12:34:43;;;;;;;5.60;4.20;;;;;;;14.41;39.36;97088.88;5070742;23;20063;-79
2021/05/03 12:37:31;;;;;;;4.75;4.32;;;;;;;14.32;37.45;97090.06;5101314;23;20351;-79
2021/05/03 13:01:37;;;;;;;4.03;3.70;;;;;;;14.45;38.65;97049.91;3781060;23;20325;-79
2021/05/03 13:04:34;;;;;;;5.72;4.25;;;;;;;14.41;37.88;97039.03;4977843;28;20107;-80
2021/05/03 13:30:17;;;;;;;4.15;3.75;;;;;;;14.15;38.15;97005.59;4978553;28;20067;-83
2021/05/03 13:32:54;;;;;;;5.88;3.60;;;;;;;14.18;37.87;97001.75;4977530;29;20077;-84
2021/05/03 13:35:29;;;;;;;4.75;4.22;;;;;;;14.19;37.27;97014.69;4979535;28;20067;-84
2021/05/03 13:38:01;;;;;;;4.80;4.15;;;;;;;14.17;35.85;96989.66;4944151;29;20085;-84
2021/05/03 13:40:29;;;;;;;4.38;3.97;;;;;;;14.13;38.38;96997.09;4959684;28;20078;-84
2021/05/03 13:43:01;;;;;;;4.68;4.15;;;;;;;14.13;37.82;96998.94;4959837;28;20052;-84
2021/05/03 13:48:06;;;;;;;4.05;3.70;;;;;;;14.06;37.75;96977.06;5033955;23;20046;-82
2021/05/03 13:50:36;;;;;;;5.10;3.60;;;;;;;14.04;37.45;96969.41;4998627;28;20038;-83
2021/05/03 13:53:04;;;;;;;4.68;4.18;;;;;;;14.00;36.85;96974.22;4984006;28;20031;-82
2021/05/03 13:55:34;;;;;;;4.20;3.80;;;;;;;13.93;38.90;96960.28;4979454;28;20083;-82
2021/05/03 13:58:02;;;;;;;4.43;3.83;;;;;;;13.93;39.00;96959.47;4978993;28;20043;-82
2021/05/03 14:00:31;;;;;;;5.65;3.72;;;;;;;13.91;37.30;96964.09;4979022;28;20048;-82
2021/05/03 14:03:00;;;;;;;3.88;3.35;;;;;;;13.88;36.47;96944.31;4979277;28;20067;-82
2021/05/03 14:05:29;;;;;;;4.80;3.70;;;;;;;13.82;36.61;96950.34;4978919;28;20095;-82
2021/05/03 14:08:02;;;;;;;3.70;3.40;;;;;;;13.73;36.24;96957.56;5152644;23;20058;-81
2021/05/03 14:10:33;;;;;;;5.78;3.58;;;;;;;13.67;37.25;96952.28;5007445;28;20057;-81
2021/05/03 14:13:04;;;;;;;6.10;4.10;;;;;;;13.63;37.95;96941.34;4997646;28;20039;-83
2021/05/03 14:15:34;;;;;;;3.80;3.40;;;;;;;13.65;38.17;96928.88;4996904;28;20050;-83
2021/05/03 14:18:02;;;;;;;3.92;3.13;;;;;;;13.68;37.50;96938.16;4997667;28;20045;-84
2021/05/03 14:20:31;;;;;;;6.53;3.30;;;;;;;13.68;36.24;96938.94;4983727;28;20047;-83
2021/05/03 14:23:06;;;;;;;3.10;2.80;;;;;;;13.70;37.04;96928.28;4975876;28;20051;-80
2021/05/03 14:25:36;;;;;;;2.63;2.42;;;;;;;13.70;37.08;96917.78;4976554;28;20083;-81
2021/05/03 14:28:14;;;;;;;5.43;3.33;;;;;;;13.70;35.62;96923.03;4977137;29;20071;-81
2021/05/03 14:30:48;;;;;;;4.35;2.97;;;;;;;13.68;35.39;96920.59;4978660;28;20066;-81
2021/05/03 14:33:20;;;;;;;3.40;3.10;;;;;;;13.69;36.76;96918.81;4961722;29;20039;-81
2021/05/03 14:35:50;;;;;;;3.78;3.42;;;;;;;13.70;36.38;96923.03;4959029;28;20106;-81
2021/05/03 14:38:21;;;;;;;3.70;3.40;;;;;;;13.72;37.02;96923.66;4958959;28;20047;-81
2021/05/03 14:40:49;;;;;;;3.70;3.10;;;;;;;13.72;35.57;96907.94;4974703;28;20058;-81
2021/05/03 14:43:20;;;;;;;3.03;2.70;;;;;;;13.72;34.79;96900.06;4975873;28;20079;-81
2021/05/03 14:45:55;;;;;;;2.78;2.42;;;;;;;13.71;34.46;96886.16;4976079;29;20039;-81
2021/05/03 14:48:28;;;;;;;2.85;2.63;;;;;;;13.73;36.52;96894.63;4978079;28;20039;-80
2021/05/03 14:51:16;;;;;;;3.17;2.65;;;;;;;13.73;36.52;96891.19;4979027;28;20062;-81
2021/05/03 14:53:59;;;;;;;5.57;3.33;;;;;;;13.67;34.90;96879.69;4979213;28;20031;-81
2021/05/03 14:56:28;;;;;;;3.00;2.70;;;;;;;13.62;35.86;96871.56;4981082;28;20039;-81
2021/05/03 14:58:58;;;;;;;3.13;2.70;;;;;;;13.56;35.38;96870.53;4982783;28;20062;-81
2021/05/03 15:01:26;;;;;;;2.75;2.28;;;;;;;13.56;36.60;96877.59;4982130;28;20077;-81
2021/05/03 15:03:58;;;;;;;2.40;2.20;;;;;;;13.57;35.56;96869.53;4981725;28;20058;-81
2021/05/03 15:06:27;;;;;;;3.20;2.80;;;;;;;13.60;35.87;96868.34;4981890;28;20062;-81
2021/05/03 15:08:56;;;;;;;2.70;2.50;;;;;;;13.56;34.32;96865.31;4980736;29;20051;-80
2021/05/03 15:11:27;;;;;;;3.25;2.00;;;;;;;13.48;34.68;96865.44;4990246;28;20041;-83
2021/05/03 15:33:34;;;;;;;2.22;2.03;;;;;;;13.59;35.84;96830.81;5362719;23;20051;-81
2021/05/03 15:39:07;;;;;;;3.42;2.95;;;;;;;13.55;36.29;96836.66;5849870;23;20281;-82
2021/05/03 15:44:46;;;;;;;2.28;2.08;;;;;;;13.50;36.21;96836.44;5551653;23;20039;-79
2021/05/03 18:13:19;;;;;;;2.03;1.60;;;;;;;12.42;37.38;96707.66;5001070;23;20111;-83
2021/05/03 18:16:06;;;;;;;2.00;1.90;;;;;;;12.35;36.88;96708.44;5221075;23;20031;-82
2021/05/03 18:18:42;;;;;;;2.70;1.83;;;;;;;12.31;35.27;96712.41;4978728;28;20090;-81
2021/05/03 18:21:21;;;;;;;3.72;2.15;;;;;;;12.26;36.37;96709.53;4955389;28;20055;-83
2021/05/03 18:26:29;;;;;;;3.85;1.75;;;;;;;12.15;36.09;96710.06;5755203;23;20039;-82
2021/05/03 18:29:19;;;;;;;2.53;1.80;;;;;;;12.08;36.47;96706.59;5016794;28;20054;-81
2021/05/03 18:46:06;;;;;;;2.63;1.60;;;;;;;11.63;42.12;96688.47;5196355;23;20611;-79
2021/05/03 18:51:31;;;;;;;1.75;1.65;;;;;;;11.34;43.28;96684.13;5004339;28;20034;-82
2021/05/03 18:54:10;;;;;;;2.05;1.95;;;;;;;11.21;44.07;96683.97;5000235;28;20031;-81
2021/05/03 18:56:40;;;;;;;3.13;2.58;;;;;;;11.08;44.44;96693.25;4999100;28;20061;-82
2021/05/03 18:59:24;;;;;;;3.72;2.17;;;;;;;10.96;44.55;96688.72;5000273;28;20035;-82
2021/05/03 19:02:06;;;;;;;3.45;3.15;;;;;;;10.80;45.69;96687.09;5000952;28;20050;-84
2021/05/03 19:04:40;;;;;;;3.75;3.33;;;;;;;10.69;45.22;96678.75;5001216;28;20066;-82
2021/05/03 19:36:51;;;;;;;15.80;4.40;;;;;;;9.50;46.72;96675.03;5039597;23;20047;-82
2021/05/03 19:39:23;;;;;;;5.57;4.57;;;;;;;9.43;47.03;96677.50;5001292;28;20055;-82
2021/05/03 19:41:51;;;;;;;5.03;4.53;;;;;;;9.37;47.13;96665.19;4981141;28;20027;-82
2021/05/03 19:44:22;;;;;;;6.05;4.70;;;;;;;9.33;47.76;96681.31;5095885;23;20051;-81
